createdAt,value
2019-05-09T00:02:21.103Z,11.50
2019-05-09T00:04:50.151Z,11.60
2019-05-09T00:07:19.121Z,11.60
2019-05-09T00:09:48.029Z,11.50
2019-05-09T00:12:17.352Z,11.60
2019-05-09T00:14:46.655Z,11.70
2019-05-09T00:17:15.696Z,11.70
2019-05-09T00:19:45.001Z,11.80
2019-05-09T00:22:13.963Z,11.80
2019-05-09T00:24:44.696Z,11.70
2019-05-09T00:27:14.274Z,11.70
2019-05-09T00:29:46.350Z,11.60
2019-05-09T00:32:34.516Z,11.60
2019-05-09T00:35:15.250Z,11.70
2019-05-09T00:38:13.271Z,11.70
2019-05-09T00:40:55.023Z,11.70
2019-05-09T00:43:13.303Z,11.60
2019-05-09T00:46:03.856Z,11.70
2019-05-09T00:48:38.417Z,11.70
2019-05-09T00:51:07.733Z,11.70
2019-05-09T00:53:37.406Z,11.70
2019-05-09T00:56:06.376Z,11.60
2019-05-09T00:58:35.256Z,11.50
2019-05-09T01:01:04.613Z,11.40
2019-05-09T01:03:34.206Z,11.40
2019-05-09T01:06:04.062Z,11.40
2019-05-09T01:08:33.587Z,11.40
2019-05-09T01:11:11.360Z,11.30
2019-05-09T01:13:34.257Z,11.40
2019-05-09T01:16:04.445Z,11.30
2019-05-09T01:18:34.296Z,11.30
2019-05-09T01:21:04.071Z,11.20
2019-05-09T01:23:34.345Z,11.20
2019-05-09T01:26:04.092Z,11.20
2019-05-09T01:28:33.914Z,11.20
2019-05-09T01:31:04.233Z,11.20
2019-05-09T01:33:50.712Z,11.20
2019-05-09T01:36:19.692Z,11.10
2019-05-09T01:38:48.649Z,11.10
2019-05-09T01:41:27.919Z,11.10
2019-05-09T01:43:49.328Z,11.10
2019-05-09T01:46:18.450Z,11.10
2019-05-09T01:48:47.403Z,11.10
2019-05-09T01:51:16.452Z,11.20
2019-05-09T01:53:53.023Z,11.10
2019-05-09T01:56:23.315Z,11.10
2019-05-09T01:58:53.830Z,11.20
2019-05-09T02:01:24.157Z,11.20
2019-05-09T02:03:53.853Z,11.20
2019-05-09T02:06:24.504Z,11.30
2019-05-09T02:08:54.459Z,11.30
2019-05-09T02:11:24.061Z,11.30
2019-05-09T02:13:54.862Z,11.20
2019-05-09T02:16:46.723Z,11.10
2019-05-09T02:19:20.672Z,11.10
2019-05-09T02:21:50.005Z,11.00
2019-05-09T02:24:18.989Z,11.00
2019-05-09T02:26:48.046Z,11.00
2019-05-09T02:29:17.016Z,11.20
2019-05-09T02:31:46.498Z,11.30
2019-05-09T02:34:15.475Z,11.30
2019-05-09T02:36:44.592Z,11.30
2019-05-09T02:39:13.548Z,11.30
2019-05-09T02:41:59.438Z,11.30
2019-05-09T02:44:13.594Z,11.30
2019-05-09T02:46:58.614Z,11.20
2019-05-09T02:49:28.745Z,11.20
2019-05-09T02:51:59.303Z,11.20
2019-05-09T02:54:29.845Z,11.20
2019-05-09T02:56:58.342Z,11.20
2019-05-09T02:59:38.611Z,11.10
2019-05-09T03:02:28.915Z,11.00
2019-05-09T03:04:58.313Z,10.90
2019-05-09T03:07:48.629Z,10.90
2019-05-09T03:10:19.162Z,10.90
2019-05-09T03:12:50.257Z,10.80
2019-05-09T03:15:18.862Z,10.90
2019-05-09T03:17:49.363Z,10.90
2019-05-09T03:20:39.397Z,10.80
2019-05-09T03:23:09.337Z,10.70
2019-05-09T03:25:40.757Z,10.60
2019-05-09T03:28:28.658Z,10.50
2019-05-09T03:30:59.464Z,10.40
2019-05-09T03:33:30.825Z,10.30
2019-05-09T03:35:59.838Z,10.10
2019-05-09T03:38:28.886Z,10.00
2019-05-09T03:40:58.108Z,9.90
2019-05-09T03:43:27.652Z,9.80
2019-05-09T03:46:28.274Z,9.70
2019-05-09T03:48:58.530Z,9.60
2019-05-09T03:51:27.599Z,9.60
2019-05-09T03:53:57.571Z,9.60
2019-05-09T03:56:31.646Z,9.50
2019-05-09T03:59:00.688Z,9.60
2019-05-09T04:01:29.721Z,9.60
2019-05-09T04:03:58.624Z,9.70
2019-05-09T04:06:28.352Z,10.00
2019-05-09T04:08:58.555Z,10.20
2019-05-09T04:11:27.729Z,10.30
2019-05-09T04:14:01.209Z,10.40
2019-05-09T04:16:30.185Z,10.60
2019-05-09T04:18:59.091Z,10.70
2019-05-09T04:21:28.192Z,10.80
2019-05-09T04:23:58.439Z,11.00
2019-05-09T04:26:42.301Z,11.10
2019-05-09T04:29:11.921Z,11.10
2019-05-09T04:31:41.597Z,11.20
2019-05-09T04:34:10.576Z,11.20
2019-05-09T04:36:39.564Z,11.40
2019-05-09T04:39:17.718Z,11.40
2019-05-09T04:41:43.714Z,11.50
2019-05-09T04:44:22.022Z,11.50
2019-05-09T04:46:54.180Z,11.70
2019-05-09T04:49:21.611Z,11.70
2019-05-09T04:51:50.638Z,11.80
2019-05-09T04:54:19.684Z,11.70
2019-05-09T04:56:49.036Z,11.60
2019-05-09T04:59:18.161Z,11.60
2019-05-09T05:01:58.204Z,11.70
2019-05-09T05:04:28.328Z,11.80
2019-05-09T05:06:58.514Z,12.10
2019-05-09T05:09:28.038Z,12.10
2019-05-09T05:11:58.068Z,12.20
2019-05-09T05:14:29.197Z,12.30
2019-05-09T05:17:07.387Z,12.40
2019-05-09T05:19:31.410Z,12.30
2019-05-09T05:22:10.292Z,12.40
2019-05-09T05:24:48.773Z,12.30
2019-05-09T05:27:18.986Z,12.30
2019-05-09T05:29:48.148Z,12.40
2019-05-09T05:32:24.634Z,12.30
2019-05-09T05:35:18.728Z,12.20
2019-05-09T05:37:47.847Z,12.20
2019-05-09T05:40:17.867Z,12.30
2019-05-09T05:42:48.144Z,12.40
2019-05-09T05:45:18.223Z,12.50
2019-05-09T05:47:54.298Z,12.50
2019-05-09T05:50:23.613Z,12.60
2019-05-09T05:52:52.873Z,12.60
2019-05-09T05:55:22.313Z,12.60
2019-05-09T05:57:51.273Z,12.70
2019-05-09T06:00:22.349Z,12.70
2019-05-09T06:02:51.558Z,12.80
2019-05-09T06:05:20.528Z,12.90
2019-05-09T06:07:49.420Z,13.10
2019-05-09T06:10:18.905Z,13.20
2019-05-09T06:12:48.416Z,13.30
2019-05-09T06:15:18.384Z,13.40
2019-05-09T06:17:48.464Z,13.50
2019-05-09T06:20:17.962Z,13.60
2019-05-09T06:22:47.735Z,13.40
2019-05-09T06:25:20.650Z,13.30
2019-05-09T06:27:48.445Z,13.30
2019-05-09T06:30:29.563Z,13.20
2019-05-09T06:32:59.128Z,13.00
2019-05-09T06:35:28.433Z,13.10
2019-05-09T06:37:58.770Z,13.00
2019-05-09T06:40:28.750Z,12.90
2019-05-09T06:42:59.908Z,12.80
2019-05-09T06:45:44.964Z,12.70
2019-05-09T06:48:14.801Z,12.70
2019-05-09T06:50:43.704Z,12.40
2019-05-09T06:53:12.729Z,12.40
2019-05-09T06:55:41.612Z,12.20
2019-05-09T06:58:28.601Z,12.20
2019-05-09T07:01:12.657Z,12.10
2019-05-09T07:03:41.773Z,12.00
2019-05-09T07:06:33.465Z,11.90
2019-05-09T07:09:17.446Z,11.80
2019-05-09T07:11:48.651Z,12.00
2019-05-09T07:14:33.859Z,11.90
2019-05-09T07:17:01.480Z,12.00
2019-05-09T07:19:31.053Z,12.00
2019-05-09T07:22:21.734Z,12.10
2019-05-09T07:25:15.948Z,12.20
2019-05-09T07:27:45.290Z,12.20
2019-05-09T07:30:42.181Z,12.20
2019-05-09T07:33:39.111Z,12.20
2019-05-09T07:36:08.617Z,12.20
2019-05-09T07:38:38.525Z,12.20
2019-05-09T07:41:08.962Z,12.20
2019-05-09T07:43:38.736Z,12.20
2019-05-09T07:46:29.807Z,12.30
2019-05-09T07:48:59.788Z,12.40
2019-05-09T07:51:29.170Z,12.60
2019-05-09T07:53:58.971Z,12.70
2019-05-09T07:56:28.588Z,12.70
2019-05-09T07:58:58.629Z,12.80
2019-05-09T08:01:28.235Z,13.00
2019-05-09T08:03:58.463Z,13.10
2019-05-09T08:06:28.844Z,13.20
2019-05-09T08:08:58.361Z,13.60
2019-05-09T08:11:28.694Z,13.80
2019-05-09T08:13:58.241Z,13.80
2019-05-09T08:16:27.894Z,14.00
2019-05-09T08:18:57.791Z,14.10
2019-05-09T08:21:27.808Z,14.10
2019-05-09T08:23:57.925Z,14.10
2019-05-09T08:26:29.716Z,14.10
2019-05-09T08:28:58.654Z,14.10
2019-05-09T08:31:28.289Z,14.00
2019-05-09T08:33:59.248Z,14.10
2019-05-09T08:36:28.537Z,14.00
2019-05-09T08:38:58.721Z,14.10
2019-05-09T08:41:29.102Z,14.20
2019-05-09T08:43:59.049Z,14.20
2019-05-09T08:46:28.766Z,14.30
2019-05-09T08:48:57.885Z,14.20
2019-05-09T08:52:04.478Z,14.20
2019-05-09T08:54:34.772Z,14.20
2019-05-09T08:57:03.885Z,14.10
2019-05-09T08:59:32.858Z,14.00
2019-05-09T09:02:14.760Z,14.10
2019-05-09T09:04:32.777Z,14.00
2019-05-09T09:07:02.430Z,14.00
2019-05-09T09:09:31.492Z,13.90
2019-05-09T09:12:00.658Z,14.00
2019-05-09T09:14:29.865Z,14.00
2019-05-09T09:16:58.817Z,13.90
2019-05-09T09:19:28.138Z,13.80
2019-05-09T09:22:00.536Z,13.90
2019-05-09T09:24:28.432Z,13.80
2019-05-09T09:26:57.577Z,13.80
2019-05-09T09:29:28.374Z,13.90
2019-05-09T09:31:57.785Z,14.20
2019-05-09T09:34:29.794Z,14.30
2019-05-09T09:37:03.711Z,14.30
2019-05-09T09:39:31.302Z,14.40
2019-05-09T09:42:00.210Z,14.40
2019-05-09T09:44:29.243Z,14.40
2019-05-09T09:46:58.503Z,14.40
2019-05-09T09:49:29.385Z,14.50
2019-05-09T09:51:58.286Z,14.50
2019-05-09T09:54:28.223Z,14.50
2019-05-09T09:56:58.550Z,14.50
2019-05-09T09:59:48.403Z,14.50
2019-05-09T10:02:20.526Z,14.50
2019-05-09T10:04:49.698Z,14.40
2019-05-09T10:07:19.066Z,14.30
2019-05-09T10:09:48.966Z,14.30
2019-05-09T10:12:18.691Z,14.30
2019-05-09T10:14:54.614Z,14.20
2019-05-09T10:17:42.850Z,14.10
2019-05-09T10:20:30.948Z,14.10
2019-05-09T10:23:16.974Z,14.20
2019-05-09T10:25:38.387Z,14.20
2019-05-09T10:28:08.718Z,14.10
2019-05-09T10:30:38.407Z,14.20
2019-05-09T10:33:09.174Z,14.10
2019-05-09T10:35:39.184Z,14.10
2019-05-09T10:38:08.999Z,14.20
2019-05-09T10:40:39.853Z,14.30
2019-05-09T10:43:38.868Z,14.40
2019-05-09T10:46:23.226Z,14.40
2019-05-09T10:48:58.650Z,14.50
2019-05-09T10:51:27.817Z,14.60
2019-05-09T10:53:58.721Z,14.70
2019-05-09T10:56:28.300Z,14.80
2019-05-09T10:58:58.503Z,14.90
2019-05-09T11:01:29.557Z,14.80
2019-05-09T11:03:59.094Z,14.80
2019-05-09T11:06:28.854Z,14.70
2019-05-09T11:08:58.465Z,14.70
2019-05-09T11:11:28.665Z,14.60
2019-05-09T11:13:58.989Z,14.60
2019-05-09T11:16:41.931Z,14.70
2019-05-09T11:18:59.081Z,14.80
2019-05-09T11:21:28.877Z,15.00
2019-05-09T11:23:58.696Z,15.10
2019-05-09T11:26:28.487Z,15.10
2019-05-09T11:28:58.783Z,15.70
2019-05-09T11:31:29.459Z,16.20
2019-05-09T11:33:58.730Z,16.20
2019-05-09T11:36:27.864Z,15.90
2019-05-09T11:39:00.727Z,15.70
2019-05-09T11:41:29.718Z,15.60
2019-05-09T11:43:59.676Z,15.40
2019-05-09T11:46:29.043Z,15.10
2019-05-09T11:48:58.706Z,14.90
2019-05-09T11:51:29.174Z,15.00
2019-05-09T11:53:58.834Z,14.70
2019-05-09T11:56:28.085Z,14.40
2019-05-09T11:58:57.917Z,14.40
2019-05-09T12:01:29.302Z,14.40
2019-05-09T12:03:57.969Z,14.20
2019-05-09T12:06:29.022Z,14.10
2019-05-09T12:08:58.751Z,14.20
2019-05-09T12:11:28.384Z,14.40
2019-05-09T12:13:58.167Z,14.40
2019-05-09T12:16:27.953Z,14.20
2019-05-09T12:18:58.368Z,14.20
2019-05-09T12:21:28.414Z,14.00
2019-05-09T12:23:58.366Z,13.90
2019-05-09T12:26:29.214Z,13.90
2019-05-09T12:28:58.538Z,13.80
2019-05-09T12:31:28.744Z,13.70
2019-05-09T12:33:59.326Z,13.60
2019-05-09T12:36:28.883Z,13.50
2019-05-09T12:38:59.103Z,13.50
2019-05-09T12:41:31.539Z,13.50
2019-05-09T12:43:59.555Z,13.30
2019-05-09T12:46:28.581Z,13.30
2019-05-09T12:48:59.163Z,13.30
2019-05-09T12:51:28.515Z,13.30
2019-05-09T12:53:58.042Z,13.30
2019-05-09T12:56:28.593Z,13.30
2019-05-09T12:58:58.314Z,13.40
2019-05-09T13:01:27.320Z,13.50
2019-05-09T13:03:58.305Z,13.50
2019-05-09T13:06:29.247Z,13.50
2019-05-09T13:08:58.809Z,13.50
2019-05-09T13:11:28.210Z,13.60
2019-05-09T13:13:57.614Z,13.70
2019-05-09T13:16:49.090Z,13.60
2019-05-09T13:19:15.055Z,13.70
2019-05-09T13:21:44.253Z,13.60
2019-05-09T13:24:13.141Z,13.50
2019-05-09T13:26:44.519Z,13.50
2019-05-09T13:29:13.389Z,13.50
2019-05-09T13:31:42.223Z,13.50
2019-05-09T13:34:11.096Z,13.60
2019-05-09T13:36:41.077Z,13.70
2019-05-09T13:39:10.911Z,13.80
2019-05-09T13:41:40.542Z,13.90
2019-05-09T13:44:13.493Z,14.00
2019-05-09T13:46:40.156Z,14.10
2019-05-09T13:49:14.291Z,14.10
2019-05-09T13:51:48.482Z,14.10
2019-05-09T13:54:10.791Z,14.20
2019-05-09T13:56:39.804Z,14.30
2019-05-09T13:59:08.861Z,14.40
2019-05-09T14:01:38.123Z,14.50
2019-05-09T14:04:07.888Z,14.50
2019-05-09T14:06:38.712Z,14.40
2019-05-09T14:09:10.102Z,14.20
2019-05-09T14:11:39.186Z,14.10
2019-05-09T14:14:08.461Z,14.00
2019-05-09T14:16:38.982Z,14.00
2019-05-09T14:19:26.034Z,14.00
2019-05-09T14:21:39.151Z,14.00
2019-05-09T14:24:14.846Z,14.10
2019-05-09T14:26:39.199Z,14.10
2019-05-09T14:29:12.599Z,14.10
2019-05-09T14:31:39.401Z,14.20
2019-05-09T14:34:08.983Z,14.20
2019-05-09T14:36:40.234Z,14.20
2019-05-09T14:39:09.526Z,14.50
2019-05-09T14:41:39.079Z,14.80
2019-05-09T14:44:09.346Z,14.80
2019-05-09T14:46:39.316Z,14.80
2019-05-09T14:49:08.705Z,14.90
2019-05-09T14:51:38.185Z,15.00
2019-05-09T14:54:08.277Z,15.10
2019-05-09T14:56:41.939Z,15.30
2019-05-09T14:59:09.851Z,15.30
2019-05-09T15:01:43.292Z,15.30
2019-05-09T15:04:09.369Z,15.30
2019-05-09T15:06:38.929Z,15.10
2019-05-09T15:09:08.686Z,14.90
2019-05-09T15:11:39.531Z,14.80
2019-05-09T15:14:08.767Z,14.80
2019-05-09T15:16:39.170Z,14.80
2019-05-09T15:19:08.699Z,14.90
2019-05-09T15:21:38.422Z,14.90
2019-05-09T15:24:09.166Z,15.10
2019-05-09T15:26:38.479Z,15.20
2019-05-09T15:29:08.213Z,15.30
2019-05-09T15:31:39.203Z,15.20
2019-05-09T15:34:10.314Z,15.30
2019-05-09T15:36:38.842Z,15.30
2019-05-09T15:39:08.493Z,15.50
2019-05-09T15:41:38.449Z,15.60
2019-05-09T15:44:08.613Z,15.60
2019-05-09T15:46:48.492Z,15.60
2019-05-09T15:49:18.382Z,15.60
2019-05-09T15:51:47.905Z,15.50
2019-05-09T15:54:17.891Z,15.40
2019-05-09T15:56:48.368Z,15.40
2019-05-09T15:59:18.556Z,15.40
2019-05-09T16:01:49.197Z,15.20
2019-05-09T16:04:18.361Z,14.90
2019-05-09T16:06:50.261Z,14.90
2019-05-09T16:09:18.137Z,14.80
2019-05-09T16:11:48.374Z,14.70
2019-05-09T16:14:18.616Z,14.60
2019-05-09T16:16:47.986Z,14.60
2019-05-09T16:19:17.405Z,14.50
2019-05-09T16:21:47.746Z,14.40
2019-05-09T16:24:18.765Z,14.40
2019-05-09T16:26:48.771Z,14.40
2019-05-09T16:29:18.178Z,14.30
2019-05-09T16:31:48.074Z,14.30
2019-05-09T16:34:18.039Z,14.40
2019-05-09T16:36:48.023Z,14.40
2019-05-09T16:39:17.981Z,14.40
2019-05-09T16:41:48.384Z,14.40
2019-05-09T16:44:18.432Z,14.50
2019-05-09T16:46:48.393Z,14.50
2019-05-09T16:49:19.943Z,14.50
2019-05-09T16:51:48.793Z,14.50
2019-05-09T16:54:18.374Z,14.50
2019-05-09T16:56:47.388Z,14.40
2019-05-09T16:59:17.941Z,14.40
2019-05-09T17:01:50.060Z,14.30
2019-05-09T17:04:19.249Z,14.40
2019-05-09T17:06:49.663Z,14.30
2019-05-09T17:09:19.006Z,14.20
2019-05-09T17:11:48.333Z,14.10
2019-05-09T17:14:19.330Z,14.10
2019-05-09T17:16:49.449Z,14.20
2019-05-09T17:19:19.538Z,14.20
2019-05-09T17:22:07.778Z,14.10
2019-05-09T17:24:38.258Z,14.00
2019-05-09T17:27:08.717Z,13.90
2019-05-09T17:29:38.262Z,13.90
2019-05-09T17:32:07.857Z,13.90
2019-05-09T17:34:38.121Z,13.80
2019-05-09T17:37:08.042Z,13.70
2019-05-09T17:39:38.679Z,13.70
2019-05-09T17:42:07.785Z,13.70
2019-05-09T17:44:36.732Z,13.70
2019-05-09T17:47:08.180Z,13.60
2019-05-09T17:49:37.549Z,13.60
2019-05-09T17:52:07.587Z,13.60
2019-05-09T17:54:37.939Z,13.60
2019-05-09T17:57:08.125Z,13.70
2019-05-09T17:59:39.205Z,13.70
2019-05-09T18:02:08.735Z,13.70
2019-05-09T18:04:38.012Z,13.70
2019-05-09T18:07:08.777Z,13.80
2019-05-09T18:09:37.629Z,13.80
2019-05-09T18:12:08.248Z,13.70
2019-05-09T18:14:38.278Z,13.70
2019-05-09T18:17:08.446Z,13.70
2019-05-09T18:19:38.123Z,13.60
2019-05-09T18:22:08.223Z,13.70
2019-05-09T18:24:37.725Z,13.60
2019-05-09T18:27:07.662Z,13.60
2019-05-09T18:29:38.053Z,13.60
2019-05-09T18:32:27.564Z,13.50
2019-05-09T18:35:08.058Z,13.50
2019-05-09T18:37:37.305Z,13.40
2019-05-09T18:40:10.316Z,13.40
2019-05-09T18:42:39.628Z,13.30
2019-05-09T18:45:09.260Z,13.40
2019-05-09T18:47:39.304Z,13.40
2019-05-09T18:50:09.096Z,13.30
2019-05-09T18:52:38.108Z,13.20
2019-05-09T18:55:07.849Z,13.10
2019-05-09T18:57:36.900Z,12.90
2019-05-09T19:00:07.177Z,12.90
2019-05-09T19:02:37.273Z,12.80
2019-05-09T19:05:06.815Z,12.80
2019-05-09T19:07:36.115Z,12.70
2019-05-09T19:10:05.354Z,12.90
2019-05-09T19:12:34.571Z,12.80
2019-05-09T19:15:05.759Z,12.70
2019-05-09T19:17:53.711Z,12.70
2019-05-09T19:20:41.500Z,12.70
2019-05-09T19:23:10.429Z,12.60
2019-05-09T19:25:39.827Z,12.50
2019-05-09T19:28:09.016Z,12.50
2019-05-09T19:30:38.226Z,12.60
2019-05-09T19:33:07.078Z,12.50
2019-05-09T19:35:36.040Z,12.50
2019-05-09T19:38:05.487Z,12.40
2019-05-09T19:40:34.445Z,12.40
2019-05-09T19:43:03.446Z,12.40
2019-05-09T19:45:32.441Z,12.50
2019-05-09T19:48:01.391Z,12.40
2019-05-09T19:50:30.703Z,12.40
2019-05-09T19:52:59.632Z,12.40
2019-05-09T19:55:28.814Z,12.40
2019-05-09T19:57:57.769Z,12.40
2019-05-09T20:00:27.073Z,12.40
2019-05-09T20:02:55.943Z,12.40
2019-05-09T20:05:25.457Z,12.40
2019-05-09T20:07:54.327Z,12.40
2019-05-09T20:10:41.229Z,12.30
2019-05-09T20:13:36.760Z,12.40
2019-05-09T20:16:05.979Z,12.30
2019-05-09T20:18:35.101Z,12.30
2019-05-09T20:21:04.118Z,12.40
2019-05-09T20:23:39.348Z,12.40
2019-05-09T20:26:08.413Z,12.40
2019-05-09T20:28:37.356Z,12.40
2019-05-09T20:31:06.348Z,12.40
2019-05-09T20:33:42.883Z,12.50
2019-05-09T20:36:12.329Z,12.40
2019-05-09T20:38:41.445Z,12.40
2019-05-09T20:41:10.601Z,12.40
2019-05-09T20:43:39.673Z,12.40
2019-05-09T20:46:10.453Z,12.40
2019-05-09T20:48:40.193Z,12.40
2019-05-09T20:51:09.297Z,12.40
2019-05-09T20:53:38.713Z,12.40
2019-05-09T20:56:08.023Z,12.40
2019-05-09T20:58:37.128Z,12.30
2019-05-09T21:01:06.244Z,12.40
2019-05-09T21:03:35.299Z,12.40
2019-05-09T21:06:04.488Z,12.30
2019-05-09T21:08:34.195Z,12.30
2019-05-09T21:11:04.517Z,12.40
2019-05-09T21:13:47.505Z,12.30
2019-05-09T21:16:05.357Z,12.30
2019-05-09T21:18:34.573Z,12.40
2019-05-09T21:21:03.980Z,12.40
2019-05-09T21:23:33.157Z,12.30
2019-05-09T21:26:02.561Z,12.30
2019-05-09T21:28:31.674Z,12.40
2019-05-09T21:31:01.411Z,12.40
2019-05-09T21:33:30.584Z,12.40
2019-05-09T21:35:59.749Z,12.40
2019-05-09T21:38:29.081Z,12.30
2019-05-09T21:40:57.935Z,12.40
2019-05-09T21:43:27.285Z,12.30
2019-05-09T21:45:56.125Z,12.30
2019-05-09T21:48:25.668Z,12.30
2019-05-09T21:50:54.662Z,12.30
2019-05-09T21:53:38.817Z,12.30
2019-05-09T21:55:54.728Z,12.30
2019-05-09T21:58:23.946Z,12.30
2019-05-09T22:00:55.600Z,12.30
2019-05-09T22:03:24.956Z,12.40
2019-05-09T22:05:54.260Z,12.30
2019-05-09T22:08:23.666Z,12.30
2019-05-09T22:10:52.570Z,12.30
2019-05-09T22:13:21.492Z,12.20
2019-05-09T22:15:50.841Z,12.20
2019-05-09T22:18:19.774Z,12.20
2019-05-09T22:20:48.620Z,12.20
2019-05-09T22:23:17.822Z,12.10
2019-05-09T22:25:46.788Z,12.20
2019-05-09T22:28:15.734Z,12.30
2019-05-09T22:30:44.568Z,12.30
2019-05-09T22:33:13.803Z,12.20
2019-05-09T22:35:42.941Z,12.20
2019-05-09T22:38:11.777Z,12.20
2019-05-09T22:40:40.777Z,12.20
2019-05-09T22:43:09.809Z,12.20
2019-05-09T22:45:38.989Z,12.10
2019-05-09T22:48:07.827Z,12.20
2019-05-09T22:50:36.797Z,12.10
2019-05-09T22:53:05.643Z,12.10
2019-05-09T22:55:34.484Z,12.00
2019-05-09T22:58:03.854Z,11.90
2019-05-09T23:00:32.900Z,11.90
2019-05-09T23:03:02.353Z,12.00
2019-05-09T23:05:31.217Z,11.90
2019-05-09T23:08:00.057Z,11.90
2019-05-09T23:10:29.057Z,11.90
2019-05-09T23:12:58.375Z,12.00
2019-05-09T23:15:27.301Z,11.90
2019-05-09T23:17:56.137Z,11.90
2019-05-09T23:20:43.116Z,11.80
2019-05-09T23:23:43.741Z,11.80
2019-05-09T23:26:16.368Z,11.80
2019-05-09T23:28:45.620Z,11.70
2019-05-09T23:31:18.633Z,11.80
2019-05-09T23:33:47.549Z,11.70
2019-05-09T23:36:16.548Z,11.70
2019-05-09T23:39:03.822Z,11.80
2019-05-09T23:41:32.749Z,11.80
2019-05-09T23:44:01.590Z,11.70
2019-05-09T23:46:30.761Z,11.70
2019-05-09T23:48:59.761Z,11.70
2019-05-09T23:51:44.846Z,11.70
2019-05-09T23:54:45.052Z,11.70
2019-05-09T23:57:21.366Z,11.70
